createdAt,value
2022-10-12T00:01:52.059Z,1026.94
2022-10-12T00:04:18.933Z,1026.97
2022-10-12T00:06:47.171Z,1026.94
2022-10-12T00:09:15.596Z,1026.98
2022-10-12T00:11:43.558Z,1026.85
2022-10-12T00:14:10.278Z,1026.86
2022-10-12T00:22:16.274Z,1026.89
2022-10-12T00:24:43.181Z,1026.92
2022-10-12T00:27:11.876Z,1026.80
2022-10-12T00:29:38.614Z,1026.86
2022-10-12T00:32:05.699Z,1026.83
2022-10-12T00:34:32.552Z,1026.92
2022-10-12T00:37:00.316Z,1026.87
2022-10-12T00:39:28.533Z,1027.03
2022-10-12T00:41:55.731Z,1027.08
2022-10-12T00:44:38.304Z,1026.99
2022-10-12T00:47:11.912Z,1026.93
2022-10-12T00:49:38.961Z,1026.89
2022-10-12T00:52:11.415Z,1026.92
2022-10-12T00:54:44.814Z,1026.97
2022-10-12T00:57:15.140Z,1027.09
2022-10-12T00:59:46.346Z,1027.03
2022-10-12T01:02:14.043Z,1027.11
2022-10-12T01:04:41.434Z,1027.06
2022-10-12T01:07:08.427Z,1027.13
2022-10-12T01:09:35.486Z,1027.22
2022-10-12T01:12:07.159Z,1027.14
2022-10-12T01:14:36.263Z,1027.17
2022-10-12T01:17:14.023Z,1027.02
2022-10-12T01:20:25.558Z,1027.15
2022-10-12T01:23:04.463Z,1027.22
2022-10-12T01:25:49.447Z,1027.17
2022-10-12T01:28:24.381Z,1027.27
2022-10-12T01:30:59.282Z,1027.26
2022-10-12T01:33:34.708Z,1027.31
2022-10-12T01:36:06.878Z,1027.29
2022-10-12T01:38:45.702Z,1027.28
2022-10-12T01:41:18.486Z,1027.37
2022-10-12T01:43:46.388Z,1027.29
2022-10-12T01:46:45.265Z,1027.39
2022-10-12T01:49:16.991Z,1027.32
2022-10-12T01:52:00.902Z,1027.27
2022-10-12T01:54:42.203Z,1027.25
2022-10-12T01:57:18.571Z,1027.23
2022-10-12T01:59:55.353Z,1027.21
2022-10-12T02:02:30.776Z,1027.14
2022-10-12T02:05:02.562Z,1027.05
2022-10-12T02:07:42.883Z,1026.99
2022-10-12T02:10:18.213Z,1026.93
2022-10-12T02:12:46.549Z,1026.96
2022-10-12T02:15:14.819Z,1026.87
2022-10-12T02:17:46.069Z,1026.88
2022-10-12T02:20:20.076Z,1026.82
2022-10-12T02:22:50.808Z,1026.83
2022-10-12T02:25:21.545Z,1026.92
2022-10-12T02:27:54.046Z,1026.82
2022-10-12T02:30:22.047Z,1026.88
2022-10-12T02:32:58.010Z,1026.78
2022-10-12T02:35:36.991Z,1026.79
2022-10-12T02:38:09.045Z,1026.82
2022-10-12T02:40:41.908Z,1026.77
2022-10-12T02:43:15.633Z,1026.82
2022-10-12T02:45:46.342Z,1026.71
2022-10-12T02:48:18.645Z,1026.68
2022-10-12T02:50:47.637Z,1026.55
2022-10-12T02:53:15.644Z,1026.66
2022-10-12T02:55:51.621Z,1026.54
2022-10-12T02:58:19.423Z,1026.35
2022-10-12T03:00:46.767Z,1026.33
2022-10-12T03:03:15.115Z,1026.42
2022-10-12T03:05:43.361Z,1026.27
2022-10-12T03:08:12.285Z,1026.34
2022-10-12T03:10:39.173Z,1026.34
2022-10-12T03:13:06.462Z,1026.34
2022-10-12T03:15:34.442Z,1026.36
2022-10-12T03:18:01.388Z,1026.27
2022-10-12T03:20:29.717Z,1026.35
2022-10-12T03:22:56.935Z,1026.40
2022-10-12T03:25:23.814Z,1026.32
2022-10-12T03:27:50.837Z,1026.29
2022-10-12T03:30:17.863Z,1026.38
2022-10-12T03:32:45.029Z,1026.44
2022-10-12T03:35:11.877Z,1026.45
2022-10-12T03:37:40.518Z,1026.41
2022-10-12T03:40:09.321Z,1026.47
2022-10-12T03:42:36.535Z,1026.47
2022-10-12T03:45:04.726Z,1026.57
2022-10-12T03:47:32.515Z,1026.56
2022-10-12T03:49:59.637Z,1026.51
2022-10-12T03:52:27.445Z,1026.54
2022-10-12T03:54:55.800Z,1026.58
2022-10-12T03:57:22.650Z,1026.51
2022-10-12T03:59:49.665Z,1026.49
2022-10-12T04:02:17.269Z,1026.51
2022-10-12T04:04:45.381Z,1026.45
2022-10-12T04:07:12.188Z,1026.38
2022-10-12T04:09:40.094Z,1026.41
2022-10-12T04:12:08.405Z,1026.32
2022-10-12T04:14:35.425Z,1026.37
2022-10-12T04:17:02.227Z,1026.36
2022-10-12T04:19:29.105Z,1026.30
2022-10-12T04:21:55.919Z,1026.35
2022-10-12T04:24:22.912Z,1026.29
2022-10-12T04:26:50.303Z,1026.32
2022-10-12T04:29:18.643Z,1026.34
2022-10-12T04:31:45.876Z,1026.29
2022-10-12T04:34:13.038Z,1026.26
2022-10-12T04:36:39.951Z,1026.26
2022-10-12T04:39:07.166Z,1026.26
2022-10-12T04:41:37.114Z,1026.24
2022-10-12T04:44:03.909Z,1026.23
2022-10-12T04:46:33.499Z,1026.31
2022-10-12T04:49:00.344Z,1026.33
2022-10-12T04:51:28.630Z,1026.38
2022-10-12T04:53:55.716Z,1026.35
2022-10-12T04:56:22.773Z,1026.41
2022-10-12T04:58:50.512Z,1026.38
2022-10-12T05:01:17.473Z,1026.35
2022-10-12T05:03:45.627Z,1026.36
2022-10-12T05:06:13.707Z,1026.30
2022-10-12T05:08:40.491Z,1026.23
2022-10-12T05:11:07.389Z,1026.15
2022-10-12T05:13:34.114Z,1026.23
2022-10-12T05:16:01.152Z,1026.27
2022-10-12T05:18:28.139Z,1026.24
2022-10-12T05:20:57.277Z,1026.24
2022-10-12T05:23:24.220Z,1026.32
2022-10-12T05:25:51.311Z,1026.42
2022-10-12T05:28:18.070Z,1026.39
2022-10-12T05:30:46.116Z,1026.44
2022-10-12T05:33:13.121Z,1026.42
2022-10-12T05:35:43.960Z,1026.47
2022-10-12T05:38:17.589Z,1026.40
2022-10-12T05:40:44.631Z,1026.43
2022-10-12T05:43:12.566Z,1026.36
2022-10-12T05:45:39.360Z,1026.31
2022-10-12T05:48:06.485Z,1026.31
2022-10-12T05:50:34.766Z,1026.32
2022-10-12T05:53:02.642Z,1026.31
2022-10-12T05:55:30.755Z,1026.18
2022-10-12T05:57:58.577Z,1026.18
2022-10-12T06:00:27.796Z,1026.14
2022-10-12T06:02:54.975Z,1026.11
2022-10-12T06:05:21.765Z,1026.01
2022-10-12T06:07:48.611Z,1025.98
2022-10-12T06:10:15.656Z,1025.99
2022-10-12T06:12:43.995Z,1025.86
2022-10-12T06:15:11.272Z,1025.96
2022-10-12T06:17:38.433Z,1025.98
2022-10-12T06:20:06.051Z,1026.07
2022-10-12T06:22:32.843Z,1026.04
2022-10-12T06:25:01.071Z,1026.02
2022-10-12T06:27:28.125Z,1026.03
2022-10-12T06:29:57.109Z,1025.97
2022-10-12T06:32:24.154Z,1025.97
2022-10-12T06:34:51.017Z,1025.95
2022-10-12T06:37:44.523Z,1025.93
2022-10-12T06:40:11.658Z,1025.88
2022-10-12T06:42:38.753Z,1025.81
2022-10-12T06:45:08.588Z,1025.87
2022-10-12T06:47:35.327Z,1025.89
2022-10-12T06:50:03.812Z,1025.95
2022-10-12T06:52:30.828Z,1025.90
2022-10-12T06:54:57.699Z,1025.91
2022-10-12T06:57:24.492Z,1025.97
2022-10-12T06:59:51.515Z,1026.03
2022-10-12T07:02:20.209Z,1025.99
2022-10-12T07:04:53.687Z,1026.00
2022-10-12T07:07:20.676Z,1026.04
2022-10-12T07:09:48.010Z,1025.99
2022-10-12T07:12:15.057Z,1025.92
2022-10-12T07:14:42.282Z,1025.97
2022-10-12T07:17:09.696Z,1025.93
2022-10-12T07:19:38.001Z,1025.90
2022-10-12T07:22:05.108Z,1025.95
2022-10-12T07:24:32.237Z,1025.93
2022-10-12T07:26:59.046Z,1025.84
2022-10-12T07:29:26.108Z,1025.84
2022-10-12T07:31:52.978Z,1025.92
2022-10-12T07:34:20.116Z,1025.91
2022-10-12T07:36:59.185Z,1025.84
2022-10-12T07:39:27.080Z,1025.69
2022-10-12T07:41:54.532Z,1025.72
2022-10-12T07:44:21.824Z,1025.67
2022-10-12T07:46:49.245Z,1025.63
2022-10-12T07:49:16.427Z,1025.59
2022-10-12T07:51:45.174Z,1025.58
2022-10-12T07:54:19.006Z,1025.55
2022-10-12T07:56:47.458Z,1025.49
2022-10-12T07:59:14.506Z,1025.49
2022-10-12T08:01:41.743Z,1025.45
2022-10-12T08:04:10.458Z,1025.44
2022-10-12T08:06:37.491Z,1025.43
2022-10-12T08:09:05.187Z,1025.42
2022-10-12T08:11:38.551Z,1025.30
2022-10-12T08:14:05.952Z,1025.38
2022-10-12T08:16:32.855Z,1025.44
2022-10-12T08:19:00.514Z,1025.47
2022-10-12T08:21:27.857Z,1025.49
2022-10-12T08:23:54.683Z,1025.36
2022-10-12T08:26:21.950Z,1025.46
2022-10-12T08:28:50.667Z,1025.51
2022-10-12T08:31:17.770Z,1025.56
2022-10-12T08:33:44.912Z,1025.54
2022-10-12T08:36:12.878Z,1025.57
2022-10-12T08:38:39.885Z,1025.60
2022-10-12T08:41:19.608Z,1025.65
2022-10-12T08:44:03.198Z,1025.68
2022-10-12T08:46:32.013Z,1025.72
2022-10-12T08:49:02.927Z,1025.74
2022-10-12T08:51:33.364Z,1025.77
2022-10-12T08:54:03.668Z,1025.79
2022-10-12T08:56:31.680Z,1025.76
2022-10-12T08:59:02.145Z,1025.83
2022-10-12T09:01:32.392Z,1025.85
2022-10-12T09:04:10.670Z,1025.81
2022-10-12T09:06:42.111Z,1025.77
2022-10-12T09:09:25.190Z,1025.79
2022-10-12T09:12:09.628Z,1025.76
2022-10-12T09:14:42.020Z,1025.68
2022-10-12T09:17:24.433Z,1025.63
2022-10-12T09:20:00.664Z,1025.63
2022-10-12T09:22:28.965Z,1025.60
2022-10-12T09:24:57.718Z,1025.54
2022-10-12T09:27:33.952Z,1025.44
2022-10-12T09:30:04.503Z,1025.42
2022-10-12T09:33:07.391Z,1025.43
2022-10-12T09:35:34.394Z,1025.27
2022-10-12T09:38:05.682Z,1025.36
2022-10-12T09:40:32.894Z,1025.27
2022-10-12T09:43:02.781Z,1025.27
2022-10-12T09:45:34.272Z,1025.29
2022-10-12T09:48:13.049Z,1025.24
2022-10-12T09:50:43.443Z,1025.28
2022-10-12T09:53:15.229Z,1025.30
2022-10-12T09:55:53.131Z,1025.24
2022-10-12T09:58:21.463Z,1025.25
2022-10-12T10:01:24.937Z,1025.21
2022-10-12T10:04:08.166Z,1025.26
2022-10-12T10:06:35.755Z,1025.21
2022-10-12T10:09:02.915Z,1025.25
2022-10-12T10:11:30.822Z,1025.13
2022-10-12T10:13:59.306Z,1025.22
2022-10-12T10:16:31.437Z,1025.17
2022-10-12T10:19:00.762Z,1025.11
2022-10-12T10:21:31.589Z,1025.00
2022-10-12T10:24:01.368Z,1024.91
2022-10-12T10:26:49.959Z,1024.80
2022-10-12T10:29:26.859Z,1024.64
2022-10-12T10:32:07.084Z,1024.49
2022-10-12T10:34:34.142Z,1024.41
2022-10-12T10:37:01.101Z,1024.36
2022-10-12T10:39:30.127Z,1024.33
2022-10-12T10:42:09.873Z,1024.21
2022-10-12T10:44:37.390Z,1024.27
2022-10-12T10:47:11.630Z,1024.10
2022-10-12T10:49:47.008Z,1024.17
2022-10-12T10:52:23.861Z,1024.18
2022-10-12T10:55:04.997Z,1024.15
2022-10-12T10:57:34.415Z,1024.13
2022-10-12T11:00:33.499Z,1024.04
2022-10-12T11:02:54.826Z,1024.08
2022-10-12T11:05:27.271Z,1024.01
2022-10-12T11:07:55.916Z,1024.05
2022-10-12T11:10:27.380Z,1024.08
2022-10-12T11:12:59.908Z,1024.01
2022-10-12T11:15:32.851Z,1024.03
2022-10-12T11:18:07.207Z,1024.00
2022-10-12T11:20:50.437Z,1024.04
2022-10-12T11:23:28.481Z,1024.09
2022-10-12T11:26:13.973Z,1024.02
2022-10-12T11:28:41.923Z,1024.09
2022-10-12T11:31:17.720Z,1024.07
2022-10-12T11:33:47.243Z,1024.12
2022-10-12T11:36:18.047Z,1024.19
2022-10-12T11:38:48.320Z,1024.10
2022-10-12T11:41:35.100Z,1024.15
2022-10-12T11:44:07.702Z,1024.16
2022-10-12T11:46:38.654Z,1024.14
2022-10-12T11:49:14.233Z,1024.10
2022-10-12T11:51:45.709Z,1024.09
2022-10-12T11:54:24.032Z,1024.15
2022-10-12T11:56:52.818Z,1024.06
2022-10-12T11:59:27.250Z,1023.92
2022-10-12T12:02:05.320Z,1023.91
2022-10-12T12:04:42.994Z,1023.86
2022-10-12T12:07:41.057Z,1023.80
2022-10-12T12:11:00.196Z,1023.81
2022-10-12T12:13:27.186Z,1023.68
2022-10-12T12:16:30.139Z,1023.73
2022-10-12T12:19:35.507Z,1023.60
2022-10-12T12:22:29.424Z,1023.55
2022-10-12T12:25:14.195Z,1023.61
2022-10-12T12:27:43.492Z,1023.54
2022-10-12T12:30:30.721Z,1023.55
2022-10-12T12:33:00.319Z,1023.49
2022-10-12T12:35:33.095Z,1023.49
2022-10-12T12:38:07.646Z,1023.52
2022-10-12T12:40:35.563Z,1023.58
2022-10-12T12:43:36.638Z,1023.67
2022-10-12T12:46:05.395Z,1023.47
2022-10-12T12:48:58.642Z,1023.28
2022-10-12T12:51:36.365Z,1023.17
2022-10-12T12:54:11.351Z,1023.11
2022-10-12T12:56:47.833Z,1022.94
2022-10-12T12:59:54.014Z,1022.70
2022-10-12T13:02:49.187Z,1022.72
2022-10-12T13:05:48.728Z,1022.53
2022-10-12T13:08:27.756Z,1022.48
2022-10-12T13:11:25.155Z,1022.37
2022-10-12T13:14:01.886Z,1022.47
2022-10-12T13:19:42.075Z,1022.22
2022-10-12T13:22:15.505Z,1022.18
2022-10-12T13:24:46.001Z,1022.05
2022-10-12T13:27:19.844Z,1022.01
2022-10-12T13:29:52.971Z,1021.94
2022-10-12T13:32:29.868Z,1021.99
2022-10-12T13:35:06.017Z,1021.79
2022-10-12T13:37:34.160Z,1021.81
2022-10-12T13:40:01.765Z,1021.71
2022-10-12T13:42:32.328Z,1021.83
2022-10-12T13:44:59.648Z,1021.72
2022-10-12T13:47:29.450Z,1021.70
2022-10-12T13:49:56.890Z,1021.57
2022-10-12T13:52:31.675Z,1021.66
2022-10-12T13:55:00.414Z,1021.60
2022-10-12T13:57:35.494Z,1021.57
2022-10-12T14:00:09.825Z,1021.60
2022-10-12T14:02:36.452Z,1021.53
2022-10-12T14:05:06.091Z,1021.60
2022-10-12T14:07:35.116Z,1021.57
2022-10-12T14:10:07.678Z,1021.53
2022-10-12T14:12:36.999Z,1021.57
2022-10-12T14:15:06.895Z,1021.65
2022-10-12T14:17:34.028Z,1021.83
2022-10-12T14:20:16.954Z,1021.91
2022-10-12T14:22:47.936Z,1022.09
2022-10-12T14:25:18.305Z,1022.21
2022-10-12T14:27:46.579Z,1022.27
2022-10-12T14:30:19.376Z,1022.33
2022-10-12T14:32:46.677Z,1022.43
2022-10-12T14:35:25.564Z,1022.39
2022-10-12T14:37:55.343Z,1022.48
2022-10-12T14:40:40.180Z,1022.49
2022-10-12T14:43:21.921Z,1022.68
2022-10-12T14:45:48.940Z,1022.50
2022-10-12T14:48:18.524Z,1022.46
2022-10-12T14:50:50.402Z,1022.56
2022-10-12T14:53:17.615Z,1022.55
2022-10-12T14:55:45.036Z,1022.67
2022-10-12T14:58:16.057Z,1022.63
2022-10-12T15:00:43.602Z,1022.68
2022-10-12T15:03:10.665Z,1022.63
2022-10-12T15:05:37.614Z,1022.63
2022-10-12T15:08:04.877Z,1022.73
2022-10-12T15:10:31.664Z,1022.73
2022-10-12T15:13:00.619Z,1022.67
2022-10-12T15:15:38.949Z,1022.71
2022-10-12T15:18:07.071Z,1022.72
2022-10-12T15:20:34.720Z,1022.79
2022-10-12T15:23:03.088Z,1022.75
2022-10-12T15:25:39.914Z,1022.89
2022-10-12T15:28:08.884Z,1023.05
2022-10-12T15:30:47.463Z,1023.12
2022-10-12T15:33:19.251Z,1023.15
2022-10-12T15:35:45.999Z,1023.40
2022-10-12T15:38:15.099Z,1023.63
2022-10-12T15:40:44.405Z,1023.72
2022-10-12T15:43:13.211Z,1023.67
2022-10-12T15:45:41.512Z,1023.69
2022-10-12T15:48:09.810Z,1023.82
2022-10-12T15:50:39.165Z,1023.84
2022-10-12T15:53:06.773Z,1023.95
2022-10-12T15:55:36.647Z,1023.97
2022-10-12T15:58:03.498Z,1024.13
2022-10-12T16:00:30.394Z,1024.20
2022-10-12T16:03:02.343Z,1024.11
2022-10-12T16:05:31.003Z,1024.16
2022-10-12T16:07:58.698Z,1024.34
2022-10-12T16:10:29.829Z,1024.39
2022-10-12T16:12:56.864Z,1024.43
2022-10-12T16:15:26.808Z,1024.42
2022-10-12T16:17:53.721Z,1024.38
2022-10-12T16:20:22.187Z,1024.33
2022-10-12T16:22:49.878Z,1024.41
2022-10-12T16:25:19.162Z,1024.49
2022-10-12T16:27:47.234Z,1024.66
2022-10-12T16:30:14.637Z,1024.68
2022-10-12T16:32:41.741Z,1024.79
2022-10-12T16:35:10.075Z,1024.77
2022-10-12T16:37:38.676Z,1024.79
2022-10-12T16:40:10.159Z,1025.01
2022-10-12T16:42:37.578Z,1025.06
2022-10-12T16:45:05.681Z,1025.04
2022-10-12T16:47:32.634Z,1025.16
2022-10-12T16:50:00.108Z,1025.14
2022-10-12T16:52:27.046Z,1025.30
2022-10-12T16:54:55.648Z,1025.25
2022-10-12T16:57:22.973Z,1025.34
2022-10-12T16:59:50.890Z,1025.39
2022-10-12T17:02:19.463Z,1025.45
2022-10-12T17:04:46.754Z,1025.36
2022-10-12T17:07:14.328Z,1025.46
2022-10-12T17:09:41.290Z,1025.62
2022-10-12T17:12:12.460Z,1025.64
2022-10-12T17:14:39.496Z,1025.75
2022-10-12T17:17:06.509Z,1025.76
2022-10-12T17:19:36.398Z,1025.71
2022-10-12T17:22:04.346Z,1025.82
2022-10-12T17:24:33.490Z,1025.91
2022-10-12T17:27:00.995Z,1025.80
2022-10-12T17:29:30.485Z,1025.95
2022-10-12T17:31:58.211Z,1025.92
2022-10-12T17:34:27.149Z,1025.96
2022-10-12T17:36:56.377Z,1026.03
2022-10-12T17:39:23.990Z,1026.12
2022-10-12T17:41:51.375Z,1026.13
2022-10-12T17:44:18.649Z,1026.16
2022-10-12T17:46:47.208Z,1026.13
2022-10-12T17:49:15.882Z,1026.23
2022-10-12T17:51:43.341Z,1026.27
2022-10-12T17:54:10.364Z,1026.28
2022-10-12T17:56:38.433Z,1026.34
2022-10-12T17:59:06.004Z,1026.34
2022-10-12T18:01:33.562Z,1026.32
2022-10-12T18:04:03.708Z,1026.35
2022-10-12T18:06:32.612Z,1026.33
2022-10-12T18:09:01.493Z,1026.35
2022-10-12T18:11:28.862Z,1026.41
2022-10-12T18:13:57.180Z,1026.46
2022-10-12T18:16:25.815Z,1026.56
2022-10-12T18:18:53.524Z,1026.59
2022-10-12T18:21:23.317Z,1026.52
2022-10-12T18:23:50.549Z,1026.56
2022-10-12T18:26:18.249Z,1026.54
2022-10-12T18:28:45.725Z,1026.54
2022-10-12T18:31:17.357Z,1026.52
2022-10-12T18:33:44.596Z,1026.59
2022-10-12T18:36:12.175Z,1026.55
2022-10-12T18:38:42.503Z,1026.51
2022-10-12T18:41:11.747Z,1026.53
2022-10-12T18:43:40.502Z,1026.59
2022-10-12T18:46:09.409Z,1026.57
2022-10-12T18:48:36.728Z,1026.52
2022-10-12T18:51:06.912Z,1026.62
2022-10-12T18:53:34.239Z,1026.66
2022-10-12T18:56:04.127Z,1026.65
2022-10-12T18:58:31.462Z,1026.61
2022-10-12T19:00:58.556Z,1026.60
2022-10-12T19:03:26.380Z,1026.61
2022-10-12T19:06:04.318Z,1026.67
2022-10-12T19:08:31.134Z,1026.59
2022-10-12T19:11:00.239Z,1026.72
2022-10-12T19:13:28.503Z,1026.76
2022-10-12T19:15:57.895Z,1026.80
2022-10-12T19:18:24.606Z,1026.79
2022-10-12T19:20:51.483Z,1026.83
2022-10-12T19:23:18.627Z,1026.86
2022-10-12T19:25:45.350Z,1026.97
2022-10-12T19:28:12.659Z,1027.03
2022-10-12T19:30:44.563Z,1027.09
2022-10-12T19:33:12.957Z,1027.07
2022-10-12T19:35:39.770Z,1026.95
2022-10-12T19:38:07.923Z,1026.93
2022-10-12T19:40:35.515Z,1026.92
2022-10-12T19:43:04.192Z,1026.93
2022-10-12T19:45:30.898Z,1026.96
2022-10-12T19:47:59.941Z,1026.85
2022-10-12T19:50:26.807Z,1026.94
2022-10-12T19:52:53.811Z,1026.92
2022-10-12T19:55:20.910Z,1026.95
2022-10-12T19:57:47.810Z,1026.84
2022-10-12T20:00:15.452Z,1026.92
2022-10-12T20:02:42.542Z,1026.98
2022-10-12T20:05:11.422Z,1026.98
2022-10-12T20:07:38.922Z,1027.02
2022-10-12T20:10:09.435Z,1027.02
2022-10-12T20:12:37.472Z,1027.05
2022-10-12T20:15:05.134Z,1026.99
2022-10-12T20:17:31.984Z,1026.87
2022-10-12T20:19:59.021Z,1026.91
2022-10-12T20:22:29.639Z,1026.86
2022-10-12T20:24:56.693Z,1026.83
2022-10-12T20:27:23.634Z,1026.73
2022-10-12T20:29:51.816Z,1026.82
2022-10-12T20:32:18.786Z,1026.88
2022-10-12T20:34:48.418Z,1026.85
2022-10-12T20:37:15.528Z,1026.88
2022-10-12T20:39:48.625Z,1026.91
2022-10-12T20:42:20.572Z,1026.88
2022-10-12T20:44:49.045Z,1026.81
2022-10-12T20:47:16.035Z,1026.71
2022-10-12T20:49:43.275Z,1026.67
2022-10-12T20:52:10.794Z,1026.73
2022-10-12T20:54:37.776Z,1026.85
2022-10-12T20:57:07.344Z,1026.94
2022-10-12T20:59:34.998Z,1026.90
2022-10-12T21:02:01.947Z,1026.89
2022-10-12T21:04:29.105Z,1026.93
2022-10-12T21:06:56.425Z,1026.73
2022-10-12T21:09:23.192Z,1026.71
2022-10-12T21:11:51.244Z,1026.82
2022-10-12T21:14:19.814Z,1026.81
2022-10-12T21:16:46.791Z,1026.80
2022-10-12T21:19:14.999Z,1026.75
2022-10-12T21:21:42.115Z,1026.62
2022-10-12T21:24:10.258Z,1026.66
2022-10-12T21:26:37.317Z,1026.72
2022-10-12T21:29:04.596Z,1026.71
2022-10-12T21:31:33.993Z,1026.79
2022-10-12T21:34:02.038Z,1026.74
2022-10-12T21:36:29.949Z,1026.64
2022-10-12T21:38:57.754Z,1026.71
2022-10-12T21:41:26.677Z,1026.69
2022-10-12T21:43:55.132Z,1026.82
2022-10-12T21:46:23.872Z,1026.75
2022-10-12T21:48:57.172Z,1026.78
2022-10-12T21:51:28.134Z,1026.74
2022-10-12T21:53:56.287Z,1026.77
2022-10-12T21:56:24.617Z,1026.78
2022-10-12T21:58:52.654Z,1026.81
2022-10-12T22:01:21.592Z,1026.78
2022-10-12T22:03:55.065Z,1026.81
2022-10-12T22:06:23.412Z,1026.77
2022-10-12T22:08:52.912Z,1026.79
2022-10-12T22:11:19.970Z,1026.70
2022-10-12T22:13:47.112Z,1026.69
2022-10-12T22:16:15.835Z,1026.70
2022-10-12T22:18:44.483Z,1026.75
2022-10-12T22:21:15.299Z,1026.77
2022-10-12T22:23:42.815Z,1026.72
2022-10-12T22:26:13.799Z,1026.75
2022-10-12T22:28:40.784Z,1026.72
2022-10-12T22:31:10.466Z,1026.63
2022-10-12T22:33:37.810Z,1026.71
2022-10-12T22:36:07.168Z,1026.65
2022-10-12T22:38:35.773Z,1026.68
2022-10-12T22:41:05.199Z,1026.73
2022-10-12T22:43:34.088Z,1026.67
2022-10-12T22:46:01.561Z,1026.75
2022-10-12T22:48:28.583Z,1026.79
2022-10-12T22:50:55.548Z,1026.75
2022-10-12T22:53:24.640Z,1026.75
2022-10-12T22:55:58.432Z,1026.79
2022-10-12T22:58:25.472Z,1026.87
2022-10-12T23:00:53.463Z,1026.81
2022-10-12T23:03:20.459Z,1026.74
2022-10-12T23:05:49.185Z,1026.85
2022-10-12T23:08:17.187Z,1026.89
2022-10-12T23:10:44.200Z,1026.88
2022-10-12T23:13:12.424Z,1026.98
2022-10-12T23:15:39.226Z,1026.97
2022-10-12T23:18:06.262Z,1027.04
2022-10-12T23:20:35.121Z,1027.03
2022-10-12T23:23:01.963Z,1027.01
2022-10-12T23:25:28.759Z,1027.12
2022-10-12T23:27:56.087Z,1027.06
2022-10-12T23:30:24.264Z,1027.21
2022-10-12T23:32:51.207Z,1027.24
2022-10-12T23:35:17.983Z,1027.15
2022-10-12T23:37:44.882Z,1027.18
2022-10-12T23:40:12.483Z,1027.28
2022-10-12T23:42:39.489Z,1027.37
2022-10-12T23:45:06.992Z,1027.28
2022-10-12T23:47:35.208Z,1027.31
2022-10-12T23:50:02.163Z,1027.32
2022-10-12T23:52:28.921Z,1027.25
2022-10-12T23:54:57.159Z,1027.35
2022-10-12T23:57:45.797Z,1027.32
